Time;durP1;ratioP1;P1;durP2;ratioP2;P2;SDS_P1;SDS_P2;PMS_P1;PMS_P2;Temp;Humidity;BMP_temperature;BMP_pressure;BME280_temperature;BME280_humidity;BME280_pressure;Samples;Min_cycle;Max_cycle;Signal;HPM_P1;HPM_P2
2023/12/04 00:00:59;;;;;;;6.35;4.50;;;;;;;17.78;43.61;101162.00;5038003;28;20029;-39
2023/12/04 00:03:24;;;;;;;6.65;4.57;;;;;;;17.75;44.02;101157.88;5042252;28;20040;-39
2023/12/04 00:05:50;;;;;;;6.60;4.25;;;;;;;17.76;44.56;101158.72;5043409;28;20354;-39
2023/12/04 00:08:15;;;;;;;7.30;4.20;;;;;;;17.72;44.59;101144.72;5018595;28;20588;-36
2023/12/04 00:10:41;;;;;;;5.82;4.00;;;;;;;17.73;44.96;101149.13;5040823;28;20528;-36
2023/12/04 00:13:06;;;;;;;6.03;3.80;;;;;;;17.73;45.23;101145.53;5039970;28;20033;-36
2023/12/04 00:15:31;;;;;;;6.28;4.40;;;;;;;17.71;45.26;101140.31;5023294;28;20024;-36
2023/12/04 00:17:57;;;;;;;6.22;3.88;;;;;;;17.72;45.26;101146.63;5041293;28;20781;-35
2023/12/04 00:20:22;;;;;;;4.75;4.00;;;;;;;17.69;45.63;101139.75;5040566;28;20108;-36
2023/12/04 00:22:47;;;;;;;4.18;3.70;;;;;;;17.69;45.67;101139.75;5042506;28;20029;-36
2023/12/04 00:25:13;;;;;;;5.57;3.80;;;;;;;17.69;45.97;101136.19;5043858;28;20031;-36
2023/12/04 00:27:38;;;;;;;4.85;4.05;;;;;;;17.67;45.92;101127.41;5040789;28;20048;-35
2023/12/04 00:30:05;;;;;;;8.45;3.75;;;;;;;17.65;46.25;101122.19;5042793;28;20082;-36
2023/12/04 00:32:31;;;;;;;4.72;3.50;;;;;;;17.66;46.43;101123.84;5024400;28;20496;-36
2023/12/04 00:34:56;;;;;;;4.10;3.63;;;;;;;17.65;46.58;101117.53;5042997;28;20068;-36
2023/12/04 00:37:22;;;;;;;3.78;3.30;;;;;;;17.66;46.66;101115.63;5024585;28;20021;-36
2023/12/04 00:39:47;;;;;;;4.72;3.70;;;;;;;17.64;46.79;101118.66;5034704;28;20028;-36
2023/12/04 00:42:13;;;;;;;5.07;3.70;;;;;;;17.64;47.03;101115.91;5043208;28;20024;-36
2023/12/04 00:44:38;;;;;;;5.25;3.60;;;;;;;17.64;47.11;101112.31;5041002;28;20040;-36
2023/12/04 00:47:03;;;;;;;5.63;4.05;;;;;;;17.63;47.18;101102.44;5042437;28;20492;-36
2023/12/04 00:49:29;;;;;;;3.83;3.40;;;;;;;17.63;47.24;101106.03;5041024;28;20268;-36
2023/12/04 00:51:54;;;;;;;6.10;3.92;;;;;;;17.63;47.44;101111.50;5038167;28;20881;-36
2023/12/04 00:54:20;;;;;;;5.43;3.35;;;;;;;17.63;47.61;101110.66;5023916;28;20029;-36
2023/12/04 00:56:45;;;;;;;3.75;3.08;;;;;;;17.63;47.37;101103.28;5036285;28;20035;-39
2023/12/04 00:59:10;;;;;;;5.28;3.80;;;;;;;17.63;47.42;101094.22;5043013;28;20067;-39
2023/12/04 01:01:36;;;;;;;4.72;3.40;;;;;;;17.63;47.54;101100.56;5024739;28;20091;-35
2023/12/04 01:04:02;;;;;;;7.97;3.95;;;;;;;17.63;47.42;101092.31;5041720;28;20096;-36
2023/12/04 01:06:27;;;;;;;4.15;3.38;;;;;;;17.62;47.16;101079.72;5041966;28;20118;-36
2023/12/04 01:08:54;;;;;;;5.55;3.88;;;;;;;17.62;47.39;101073.38;5038712;28;20404;-36
2023/12/04 01:11:19;;;;;;;5.43;3.70;;;;;;;17.62;47.42;101073.38;5041909;28;20021;-36
2023/12/04 01:13:45;;;;;;;4.65;3.67;;;;;;;17.62;47.46;101079.72;5044994;28;20033;-36
2023/12/04 01:16:10;;;;;;;4.15;3.42;;;;;;;17.62;47.22;101079.72;5042240;28;20025;-36
2023/12/04 01:18:36;;;;;;;5.55;3.72;;;;;;;17.60;46.98;101076.41;5043426;28;20041;-35
2023/12/04 01:21:02;;;;;;;5.13;3.70;;;;;;;17.60;46.98;101076.41;5042591;28;20102;-36
2023/12/04 01:23:27;;;;;;;5.10;3.60;;;;;;;17.59;46.70;101066.53;5041121;28;20032;-36
2023/12/04 01:25:53;;;;;;;5.22;3.60;;;;;;;17.56;46.58;101056.13;5024076;28;20032;-36
2023/12/04 01:28:18;;;;;;;3.97;3.58;;;;;;;17.56;46.41;101056.13;5040127;28;20044;-36
2023/12/04 01:30:43;;;;;;;4.63;3.33;;;;;;;17.56;46.48;101058.03;5040181;28;20090;-36
2023/12/04 01:33:09;;;;;;;4.25;3.72;;;;;;;17.53;46.11;101039.38;5039026;28;20044;-35
2023/12/04 01:35:34;;;;;;;4.55;3.63;;;;;;;17.52;46.09;101046.78;5035633;28;20385;-36
2023/12/04 01:38:00;;;;;;;4.93;3.80;;;;;;;17.50;46.07;101038.00;5023206;28;20090;-39
2023/12/04 01:40:26;;;;;;;4.68;3.70;;;;;;;17.49;45.97;101037.16;5042566;28;20087;-39
2023/12/04 01:42:51;;;;;;;4.55;3.72;;;;;;;17.49;45.89;101044.59;5023025;28;20021;-39
2023/12/04 01:45:17;;;;;;;4.68;3.53;;;;;;;17.48;45.75;101049.25;5034207;28;20279;-39
2023/12/04 01:47:42;;;;;;;5.07;3.45;;;;;;;17.45;45.87;101038.81;5041498;28;20024;-39
2023/12/04 01:50:08;;;;;;;4.03;3.40;;;;;;;17.45;45.60;101035.25;5023001;28;20057;-39
2023/12/04 01:52:35;;;;;;;4.63;3.70;;;;;;;17.44;45.69;101025.38;5041813;28;20227;-39
2023/12/04 01:55:00;;;;;;;4.93;3.78;;;;;;;17.43;45.70;101029.22;5020606;28;20087;-39
2023/12/04 01:57:26;;;;;;;5.45;3.33;;;;;;;17.41;45.56;101031.38;5038964;28;20026;-36
2023/12/04 01:59:51;;;;;;;4.30;3.03;;;;;;;17.39;45.57;101031.66;5040969;28;20048;-36
2023/12/04 02:02:17;;;;;;;4.03;3.50;;;;;;;17.39;45.52;101031.66;5044537;28;20016;-36
2023/12/04 02:04:42;;;;;;;4.90;3.72;;;;;;;17.37;45.62;101024.81;5023637;28;20032;-36
2023/12/04 02:07:09;;;;;;;5.85;3.72;;;;;;;17.36;45.46;101017.69;5043447;28;20043;-39
2023/12/04 02:09:34;;;;;;;4.28;3.53;;;;;;;17.35;45.58;101022.34;5045566;28;20059;-39
2023/12/04 02:12:00;;;;;;;4.15;3.25;;;;;;;17.33;45.48;101014.38;5046088;28;20045;-39
2023/12/04 02:14:25;;;;;;;5.00;3.15;;;;;;;17.34;45.60;101012.47;5027410;28;20048;-39
2023/12/04 02:16:52;;;;;;;4.68;3.47;;;;;;;17.33;45.37;100999.88;5044041;28;20511;-39
2023/12/04 02:19:17;;;;;;;3.92;3.50;;;;;;;17.32;45.42;100998.22;5021080;28;20160;-39
2023/12/04 02:21:42;;;;;;;4.57;3.67;;;;;;;17.30;45.34;100998.47;5046570;28;20071;-39
2023/12/04 02:24:08;;;;;;;3.92;3.53;;;;;;;17.31;45.29;100999.28;5045319;28;20113;-36
2023/12/04 02:26:39;;;;;;;4.82;3.20;;;;;;;17.29;45.38;100998.75;5027064;28;20036;-36
2023/12/04 02:29:08;;;;;;;3.60;3.28;;;;;;;17.29;45.31;100996.84;5045232;28;20548;-36
2023/12/04 02:31:34;;;;;;;4.30;3.55;;;;;;;17.28;45.08;100997.13;5026999;28;20059;-36
2023/12/04 02:34:00;;;;;;;3.88;3.47;;;;;;;17.27;45.19;100982.56;5042454;28;20040;-36
2023/12/04 02:36:27;;;;;;;4.38;3.17;;;;;;;17.25;45.24;100979.31;5034465;28;20027;-36
2023/12/04 02:38:53;;;;;;;4.07;3.45;;;;;;;17.25;44.96;100968.34;5041587;28;20061;-35
2023/12/04 02:41:19;;;;;;;4.55;3.53;;;;;;;17.25;45.08;100971.06;5044833;28;20028;-36
2023/12/04 02:43:44;;;;;;;5.45;3.72;;;;;;;17.25;45.09;100967.50;5019453;28;20112;-36
2023/12/04 02:46:09;;;;;;;3.50;3.20;;;;;;;17.25;44.98;100972.97;5026718;28;20258;-36
2023/12/04 02:48:35;;;;;;;4.15;3.17;;;;;;;17.25;44.99;100964.75;5043725;28;20139;-36
2023/12/04 02:51:01;;;;;;;5.07;3.67;;;;;;;17.22;44.98;100960.66;5044730;28;20035;-35
2023/12/04 02:53:26;;;;;;;3.67;3.30;;;;;;;17.23;44.95;100954.09;5040447;28;20125;-35
2023/12/04 02:55:52;;;;;;;4.25;3.40;;;;;;;17.23;44.89;100958.72;5040653;28;20338;-39
2023/12/04 02:58:17;;;;;;;3.92;3.60;;;;;;;17.20;44.83;100946.38;5036910;28;20048;-40
2023/12/04 03:00:43;;;;;;;3.75;3.38;;;;;;;17.20;44.89;100949.13;5042554;28;20026;-40
2023/12/04 03:03:08;;;;;;;4.85;3.22;;;;;;;17.21;44.94;100947.22;5037715;28;20060;-40
2023/12/04 03:05:33;;;;;;;5.03;3.78;;;;;;;17.20;44.68;100942.84;5044052;28;20052;-40
2023/12/04 03:07:59;;;;;;;3.55;3.00;;;;;;;17.17;44.91;100934.06;5041673;28;20064;-39
2023/12/04 03:10:24;;;;;;;3.60;3.25;;;;;;;17.18;45.15;100926.69;5040277;28;20024;-40
2023/12/04 03:12:49;;;;;;;4.05;3.25;;;;;;;17.16;44.75;100926.94;5041784;28;20032;-40
2023/12/04 03:15:15;;;;;;;4.20;3.30;;;;;;;17.15;44.82;100917.09;5043481;28;20017;-40
2023/12/04 03:17:40;;;;;;;3.38;3.08;;;;;;;17.14;44.89;100918.19;5046172;28;20548;-39
2023/12/04 03:20:08;;;;;;;3.65;3.00;;;;;;;17.14;44.92;100911.84;5043204;28;20422;-39
2023/12/04 03:22:34;;;;;;;4.13;3.13;;;;;;;17.12;44.88;100901.19;5041495;28;20036;-39
2023/12/04 03:24:59;;;;;;;4.15;3.70;;;;;;;17.12;44.69;100901.19;5041274;28;20025;-39
2023/12/04 03:27:25;;;;;;;4.03;3.40;;;;;;;17.12;44.74;100895.72;5032790;28;20037;-39
2023/12/04 03:29:50;;;;;;;4.15;3.50;;;;;;;17.11;44.76;100893.25;5042221;28;20036;-39
2023/12/04 03:32:16;;;;;;;4.63;3.35;;;;;;;17.10;44.67;100888.84;5041826;28;20118;-39
2023/12/04 03:34:41;;;;;;;5.97;3.53;;;;;;;17.10;44.54;100878.72;5040418;28;20033;-39
2023/12/04 03:37:06;;;;;;;4.55;3.33;;;;;;;17.09;44.58;100871.63;5038282;28;20053;-39
2023/12/04 03:39:32;;;;;;;3.45;3.03;;;;;;;17.09;44.63;100873.50;5041549;28;20039;-39
2023/12/04 03:41:57;;;;;;;3.85;3.35;;;;;;;17.09;44.59;100876.25;5043325;28;20016;-39
2023/12/04 03:44:22;;;;;;;5.50;4.05;;;;;;;17.06;44.19;100858.44;5022454;28;20478;-39
2023/12/04 03:46:48;;;;;;;3.47;3.17;;;;;;;17.07;44.50;100864.72;5041339;28;20101;-40
2023/12/04 03:49:13;;;;;;;6.32;3.28;;;;;;;17.07;44.55;100862.00;5032916;28;20056;-39
2023/12/04 03:51:38;;;;;;;3.92;3.28;;;;;;;17.05;44.57;100858.72;5039500;28;20052;-39
2023/12/04 03:54:04;;;;;;;3.53;3.15;;;;;;;17.04;44.52;100859.81;5033200;28;20060;-39
2023/12/04 03:56:29;;;;;;;4.13;3.10;;;;;;;17.03;44.71;100863.63;5041939;28;20025;-35
2023/12/04 03:58:54;;;;;;;4.05;3.20;;;;;;;17.02;44.65;100853.78;5034758;28;20031;-35
2023/12/04 04:01:20;;;;;;;3.60;3.00;;;;;;;17.00;44.43;100849.38;5039292;28;20021;-35
2023/12/04 04:03:45;;;;;;;4.05;3.15;;;;;;;16.99;44.47;100845.03;5020395;28;20660;-35
2023/12/04 04:06:11;;;;;;;3.88;2.97;;;;;;;16.99;44.45;100841.44;5024056;28;20106;-35
2023/12/04 04:08:36;;;;;;;3.25;2.95;;;;;;;16.99;44.46;100830.50;5040827;28;20036;-36
2023/12/04 04:11:02;;;;;;;4.68;3.33;;;;;;;16.97;44.46;100830.78;5040445;28;20432;-36
2023/12/04 04:13:27;;;;;;;3.78;3.25;;;;;;;16.97;44.42;100827.19;5015979;28;20126;-35
2023/12/04 04:15:53;;;;;;;4.43;3.13;;;;;;;16.98;44.35;100831.59;5038026;28;20476;-35
2023/12/04 04:18:18;;;;;;;3.70;3.30;;;;;;;16.97;44.45;100830.78;5029560;28;20541;-35
2023/12/04 04:20:43;;;;;;;3.20;2.90;;;;;;;16.97;44.23;100827.19;5038617;28;20037;-36
2023/12/04 04:23:09;;;;;;;4.38;2.92;;;;;;;16.96;44.29;100831.88;5034089;28;20147;-36
2023/12/04 04:25:34;;;;;;;4.03;3.05;;;;;;;16.96;44.38;100820.09;5037397;28;20032;-36
2023/12/04 04:28:00;;;;;;;4.15;3.17;;;;;;;16.94;44.24;100819.53;5039268;28;20100;-36
2023/12/04 04:30:25;;;;;;;2.95;2.67;;;;;;;16.93;44.39;100818.69;5044501;28;20417;-36
2023/12/04 04:32:50;;;;;;;3.35;2.95;;;;;;;16.93;44.23;100817.88;5036032;28;20037;-35
2023/12/04 04:35:16;;;;;;;4.22;3.00;;;;;;;16.92;44.29;100810.75;5040440;28;20369;-35
2023/12/04 04:37:41;;;;;;;2.92;2.63;;;;;;;16.92;44.41;100810.75;5023790;28;20033;-36
2023/12/04 04:40:07;;;;;;;3.50;3.08;;;;;;;16.91;44.33;100820.03;5046533;28;20314;-36
2023/12/04 04:42:32;;;;;;;3.50;3.03;;;;;;;16.90;44.28;100805.53;5040239;28;20519;-35
2023/12/04 04:44:58;;;;;;;4.00;2.78;;;;;;;16.94;44.46;100816.81;5020185;28;20021;-35
2023/12/04 04:47:23;;;;;;;3.72;3.15;;;;;;;16.96;44.46;100812.69;5044593;28;20317;-35
2023/12/04 04:49:48;;;;;;;3.20;2.90;;;;;;;16.99;44.32;100806.69;5037447;28;20420;-36
2023/12/04 04:52:14;;;;;;;3.47;2.88;;;;;;;17.04;44.30;100814.06;5041406;28;20044;-36
2023/12/04 04:54:39;;;;;;;2.90;2.58;;;;;;;17.09;44.09;100794.94;5037026;28;20067;-36
2023/12/04 04:57:04;;;;;;;3.50;2.70;;;;;;;17.16;44.17;100787.25;5036405;28;20028;-36
2023/12/04 04:59:31;;;;;;;3.13;2.85;;;;;;;17.24;44.08;100785.06;5039286;28;20454;-35
2023/12/04 05:01:57;;;;;;;3.58;3.00;;;;;;;17.31;44.04;100774.66;5040888;28;20059;-36
2023/12/04 05:04:22;;;;;;;3.17;2.83;;;;;;;17.40;43.96;100778.53;5039302;28;20385;-39
2023/12/04 05:06:48;;;;;;;3.42;2.90;;;;;;;17.50;44.02;100777.69;5042387;28;20047;-39
2023/12/04 05:09:13;;;;;;;3.30;2.67;;;;;;;17.58;43.42;100771.66;5041968;28;20048;-39
2023/12/04 05:11:38;;;;;;;2.95;2.60;;;;;;;17.68;44.09;100775.47;5046696;28;20504;-39
2023/12/04 05:14:04;;;;;;;3.42;2.95;;;;;;;17.80;43.76;100767.78;5035744;28;20380;-40
2023/12/04 05:16:29;;;;;;;2.80;2.55;;;;;;;17.91;43.68;100774.06;5035910;28;20181;-39
2023/12/04 05:18:55;;;;;;;3.38;2.75;;;;;;;18.00;43.61;100761.47;5040731;28;20036;-39
2023/12/04 05:21:20;;;;;;;2.88;2.58;;;;;;;18.11;43.68;100756.75;5041604;28;20025;-39
2023/12/04 05:23:45;;;;;;;2.95;2.50;;;;;;;18.22;43.36;100763.03;5040398;28;20584;-39
2023/12/04 05:26:11;;;;;;;3.22;2.65;;;;;;;18.30;43.38;100759.72;5040795;28;20040;-38
2023/12/04 05:28:36;;;;;;;2.80;2.50;;;;;;;18.40;43.28;100747.88;5035332;28;20034;-39
2023/12/04 05:31:02;;;;;;;3.58;2.88;;;;;;;18.50;43.15;100747.00;5038418;28;20505;-39
2023/12/04 05:33:27;;;;;;;3.88;2.47;;;;;;;18.58;42.93;100749.97;5037997;28;20399;-39
2023/12/04 05:35:53;;;;;;;3.33;2.50;;;;;;;18.68;43.05;100742.78;5045060;28;20401;-39
2023/12/04 05:38:18;;;;;;;4.50;2.80;;;;;;;18.78;42.95;100739.97;5043575;28;20048;-39
2023/12/04 05:40:44;;;;;;;3.30;2.70;;;;;;;18.86;42.70;100744.03;5033314;28;20043;-40
2023/12/04 05:43:09;;;;;;;2.65;2.42;;;;;;;18.93;42.59;100747.31;5045028;28;20559;-39
2023/12/04 05:45:35;;;;;;;2.60;2.40;;;;;;;19.00;42.73;100739.56;5026986;28;20024;-39
2023/12/04 05:48:00;;;;;;;3.30;2.80;;;;;;;19.08;42.51;100754.66;5043826;28;20079;-39
2023/12/04 05:50:26;;;;;;;2.92;2.70;;;;;;;19.11;42.48;100750.50;5040184;28;20071;-39
2023/12/04 05:52:51;;;;;;;2.60;2.40;;;;;;;19.13;42.54;100749.09;5038236;28;20428;-39
2023/12/04 05:55:16;;;;;;;3.00;2.70;;;;;;;19.15;42.26;100754.31;5013235;28;20033;-39
2023/12/04 05:57:43;;;;;;;2.78;2.30;;;;;;;19.14;42.20;100756.25;5041674;28;20036;-39
2023/12/04 06:00:12;;;;;;;3.15;2.85;;;;;;;19.11;41.96;100745.00;5047065;28;20036;-35
2023/12/04 06:02:47;;;;;;;3.05;2.70;;;;;;;19.07;42.35;100751.06;5041535;28;20550;-35
2023/12/04 06:05:12;;;;;;;3.28;2.58;;;;;;;19.01;42.39;100741.22;5038343;28;20029;-39
2023/12/04 06:07:38;;;;;;;2.83;2.47;;;;;;;19.00;42.28;100744.25;5041619;28;20025;-36
2023/12/04 06:10:04;;;;;;;3.58;2.50;;;;;;;18.97;42.12;100742.91;5040825;28;20481;-36
2023/12/04 06:12:30;;;;;;;2.67;2.47;;;;;;;18.93;42.37;100747.31;5027362;28;20483;-36
2023/12/04 06:14:55;;;;;;;3.00;2.70;;;;;;;18.90;42.29;100736.88;5022780;28;20051;-39
2023/12/04 06:17:21;;;;;;;2.80;2.30;;;;;;;18.84;42.38;100727.84;5043381;28;20032;-39
2023/12/04 06:19:47;;;;;;;3.20;2.90;;;;;;;18.84;42.57;100722.34;5044689;28;20547;-39
2023/12/04 06:22:12;;;;;;;4.03;2.70;;;;;;;18.84;42.45;100721.53;5044453;28;20028;-39
2023/12/04 06:24:38;;;;;;;8.02;2.80;;;;;;;18.83;42.56;100720.72;5025344;28;20024;-39
2023/12/04 06:27:06;;;;;;;2.80;2.60;;;;;;;18.84;42.40;100707.81;5042833;28;20040;-39
2023/12/04 06:29:31;;;;;;;3.55;2.80;;;;;;;18.84;42.41;100705.88;5038937;28;20029;-39
2023/12/04 06:31:57;;;;;;;2.70;2.50;;;;;;;18.85;42.61;100715.75;5036135;28;20060;-39
2023/12/04 06:34:23;;;;;;;4.35;2.92;;;;;;;18.86;42.32;100703.69;5043820;28;20075;-39
2023/12/04 06:36:49;;;;;;;2.83;2.63;;;;;;;18.87;42.30;100702.56;5041987;28;20466;-35
2023/12/04 06:39:16;;;;;;;3.35;2.40;;;;;;;18.87;42.46;100702.56;5031737;28;20025;-36
2023/12/04 06:41:42;;;;;;;3.05;2.75;;;;;;;18.87;42.37;100690.75;5042605;28;20036;-36
2023/12/04 06:44:08;;;;;;;2.72;2.50;;;;;;;18.89;42.44;100685.81;5033769;28;20379;-36
2023/12/04 06:46:37;;;;;;;3.20;2.90;;;;;;;18.89;42.29;100691.31;5040143;28;20025;-36
2023/12/04 06:49:04;;;;;;;3.20;2.88;;;;;;;18.88;42.19;100687.75;5043879;28;20366;-36
2023/12/04 06:51:29;;;;;;;3.20;2.90;;;;;;;18.86;42.29;100689.94;5042677;28;20052;-35
2023/12/04 06:53:55;;;;;;;3.38;2.83;;;;;;;18.83;42.19;100690.50;5037291;28;20100;-35
2023/12/04 06:56:20;;;;;;;3.53;3.00;;;;;;;18.79;42.20;100689.44;5044055;28;20067;-36
2023/12/04 06:58:45;;;;;;;3.78;2.92;;;;;;;18.75;42.22;100686.44;5032625;28;20037;-35
2023/12/04 07:01:11;;;;;;;3.33;3.00;;;;;;;18.71;42.31;100687.31;5040311;28;20508;-35
2023/12/04 07:03:36;;;;;;;3.50;3.20;;;;;;;18.67;42.42;100691.72;5042965;28;20177;-36
2023/12/04 07:06:02;;;;;;;3.25;2.90;;;;;;;18.66;42.39;100681.84;5024426;28;20027;-35
2023/12/04 07:08:27;;;;;;;3.15;2.85;;;;;;;18.64;42.42;100676.66;5038828;28;20159;-36
2023/12/04 07:10:52;;;;;;;3.30;2.90;;;;;;;18.63;42.59;100682.44;5036543;28;20027;-36
2023/12/04 07:13:19;;;;;;;3.17;2.88;;;;;;;18.62;42.87;100678.84;5018254;28;20104;-36
2023/12/04 07:15:44;;;;;;;3.53;3.10;;;;;;;18.62;42.54;100662.38;5039248;28;20116;-36
2023/12/04 07:18:09;;;;;;;4.22;2.83;;;;;;;18.63;42.67;100663.22;5043050;28;20284;-36
2023/12/04 07:20:35;;;;;;;3.13;2.83;;;;;;;18.64;42.50;100654.69;5042954;28;20493;-36
2023/12/04 07:23:00;;;;;;;5.70;3.13;;;;;;;18.65;42.53;100648.09;5042958;28;20036;-36
2023/12/04 07:25:26;;;;;;;3.30;2.60;;;;;;;18.67;42.68;100656.03;5048735;28;20039;-36
2023/12/04 07:27:51;;;;;;;3.55;2.85;;;;;;;18.72;42.13;100656.00;5044511;28;20485;-36
2023/12/04 07:30:17;;;;;;;3.53;2.83;;;;;;;18.73;42.32;100652.97;5042989;28;20343;-36
2023/12/04 07:32:42;;;;;;;5.18;3.10;;;;;;;18.75;42.54;100652.69;5042483;28;20102;-36
2023/12/04 07:35:07;;;;;;;4.55;2.92;;;;;;;18.75;42.37;100648.00;5044163;28;20033;-36
2023/12/04 07:37:33;;;;;;;4.43;2.83;;;;;;;18.76;42.41;100649.66;5042897;28;20028;-36
2023/12/04 07:39:59;;;;;;;3.20;2.90;;;;;;;18.77;42.43;100647.72;5039578;28;21871;-36
2023/12/04 07:42:24;;;;;;;3.10;2.60;;;;;;;18.75;42.28;100655.44;5044871;28;20013;-35
2023/12/04 07:44:49;;;;;;;3.55;3.03;;;;;;;18.74;42.33;100656.53;5045970;28;20044;-36
2023/12/04 07:47:18;;;;;;;3.60;3.20;;;;;;;18.71;42.26;100657.94;5042664;28;20021;-36
2023/12/04 07:49:44;;;;;;;3.20;2.90;;;;;;;18.68;42.39;100646.72;5041803;28;20052;-36
2023/12/04 07:52:11;;;;;;;3.20;2.90;;;;;;;18.65;42.32;100650.00;5042919;28;20084;-36
2023/12/04 07:54:36;;;;;;;3.03;2.78;;;;;;;18.62;42.38;100645.09;5045072;28;20094;-37
2023/12/04 07:57:02;;;;;;;3.05;2.75;;;;;;;18.58;42.48;100644.84;5041767;28;20025;-37
2023/12/04 07:59:27;;;;;;;3.20;2.90;;;;;;;18.57;42.33;100641.28;5041940;28;20052;-37
2023/12/04 08:01:52;;;;;;;4.07;3.10;;;;;;;18.53;42.45;100632.00;5041879;28;20108;-36
2023/12/04 08:04:18;;;;;;;3.47;2.80;;;;;;;18.52;42.40;100657.78;5042645;28;20488;-36
2023/12/04 08:06:43;;;;;;;8.00;3.00;;;;;;;18.51;42.41;100658.88;5042195;28;20108;-36
2023/12/04 08:09:10;;;;;;;3.15;2.72;;;;;;;18.51;42.35;100652.59;5024042;28;20020;-36
2023/12/04 08:11:36;;;;;;;3.22;2.92;;;;;;;18.49;42.38;100657.53;5038784;28;20029;-36
2023/12/04 08:14:02;;;;;;;3.63;3.10;;;;;;;18.47;42.34;100652.34;5036607;28;20481;-36
2023/12/04 08:16:28;;;;;;;3.45;3.10;;;;;;;18.46;42.22;100652.63;5023749;28;20048;-36
2023/12/04 08:18:54;;;;;;;3.42;3.00;;;;;;;18.44;42.10;100645.50;5041192;28;20670;-36
2023/12/04 08:21:20;;;;;;;3.00;2.70;;;;;;;18.43;42.35;100645.78;5042559;28;20032;-37
2023/12/04 08:23:45;;;;;;;4.68;3.13;;;;;;;18.42;42.29;100642.22;5040504;28;20029;-36
2023/12/04 08:26:11;;;;;;;3.42;2.90;;;;;;;18.41;42.23;100645.25;5034988;28;20064;-35
2023/12/04 08:28:37;;;;;;;3.40;3.10;;;;;;;18.39;42.08;100629.06;5036310;28;20087;-35
2023/12/04 08:31:03;;;;;;;2.97;2.67;;;;;;;18.37;42.17;100636.75;5039138;28;20028;-36
2023/12/04 08:33:29;;;;;;;3.35;3.00;;;;;;;18.36;42.39;100634.31;5028306;28;20127;-36
2023/12/04 08:35:55;;;;;;;3.05;2.75;;;;;;;18.33;42.25;100623.88;5015864;28;20539;-36
2023/12/04 08:38:20;;;;;;;2.90;2.60;;;;;;;18.32;42.22;100614.00;5034805;28;20029;-36
2023/12/04 08:40:46;;;;;;;3.55;2.85;;;;;;;18.30;42.15;100621.72;5023775;28;20068;-36
2023/12/04 08:43:11;;;;;;;3.42;3.03;;;;;;;18.27;42.29;100609.38;5036553;28;20025;-36
2023/12/04 08:45:36;;;;;;;3.10;2.78;;;;;;;18.25;42.27;100612.41;5041390;28;20037;-36
2023/12/04 08:48:02;;;;;;;3.35;2.72;;;;;;;18.23;42.21;100605.56;5033733;28;20375;-36
2023/12/04 08:50:27;;;;;;;3.05;2.70;;;;;;;18.21;42.33;100603.13;5042688;28;20163;-37
2023/12/04 08:52:53;;;;;;;2.90;2.53;;;;;;;18.19;42.12;100602.56;5037631;28;20033;-35
2023/12/04 08:55:19;;;;;;;3.15;2.45;;;;;;;18.17;42.34;100593.78;5051345;28;20036;-36
2023/12/04 08:57:44;;;;;;;2.53;2.33;;;;;;;18.16;42.38;100583.97;5038212;28;20052;-36
2023/12/04 09:00:10;;;;;;;3.58;3.00;;;;;;;18.15;42.30;100581.47;5036387;28;20036;-37
2023/12/04 09:02:36;;;;;;;3.08;2.67;;;;;;;18.14;42.39;100593.56;5039577;28;20155;-35
2023/12/04 09:05:01;;;;;;;3.53;2.70;;;;;;;18.15;42.25;100590.53;5039815;28;20029;-36
2023/12/04 09:07:27;;;;;;;5.32;2.78;;;;;;;18.15;42.25;100589.69;5042997;28;20429;-35
2023/12/04 09:09:52;;;;;;;3.15;2.72;;;;;;;18.16;42.36;100592.19;5041222;28;20032;-36
2023/12/04 09:12:18;;;;;;;2.75;2.55;;;;;;;18.16;42.44;100583.97;5022972;28;20521;-35
2023/12/04 09:14:43;;;;;;;7.13;2.78;;;;;;;18.19;42.55;100582.56;5040834;28;20040;-36
2023/12/04 09:17:09;;;;;;;3.22;2.55;;;;;;;18.21;42.52;100583.06;5022137;28;20040;-36
2023/12/04 09:19:35;;;;;;;2.95;2.65;;;;;;;18.23;42.44;100589.13;5033825;28;20028;-36
2023/12/04 09:22:00;;;;;;;3.60;2.72;;;;;;;18.24;42.51;100590.75;5035741;28;20080;-37
2023/12/04 09:24:27;;;;;;;4.20;2.80;;;;;;;18.26;42.34;100599.53;5015159;28;20324;-37
2023/12/04 09:26:52;;;;;;;2.47;2.28;;;;;;;18.27;42.46;100595.66;5039339;28;20056;-36
2023/12/04 09:29:18;;;;;;;3.53;2.67;;;;;;;18.26;42.18;100600.34;5040759;28;20036;-36
2023/12/04 09:31:44;;;;;;;6.55;2.70;;;;;;;18.26;42.36;100591.31;5041400;28;20078;-36
2023/12/04 09:34:09;;;;;;;2.83;2.53;;;;;;;18.26;42.49;100592.09;5038929;28;20044;-36
2023/12/04 09:36:34;;;;;;;4.03;3.00;;;;;;;18.25;42.39;100592.41;5036685;28;20485;-36
2023/12/04 09:39:00;;;;;;;3.15;2.80;;;;;;;18.23;42.35;100589.13;5042908;28;20107;-36
2023/12/04 09:41:26;;;;;;;3.42;2.30;;;;;;;18.21;42.35;100589.41;5040081;28;20035;-40
2023/12/04 09:43:51;;;;;;;3.05;2.40;;;;;;;18.20;42.30;100581.47;5038610;28;20028;-36
2023/12/04 09:46:17;;;;;;;2.65;2.40;;;;;;;18.19;42.35;100583.38;5021528;28;20190;-36
2023/12/04 09:48:43;;;;;;;2.60;2.40;;;;;;;18.18;42.38;100578.97;5039403;28;20032;-36
2023/12/04 09:51:09;;;;;;;3.35;2.53;;;;;;;18.19;42.36;100577.06;5022223;28;20045;-36
2023/12/04 09:53:35;;;;;;;2.72;2.35;;;;;;;18.18;42.33;100573.50;5040468;28;20039;-36
2023/12/04 09:56:03;;;;;;;3.92;2.50;;;;;;;18.19;42.40;100571.59;5045632;28;20039;-37
2023/12/04 09:58:29;;;;;;;3.35;2.33;;;;;;;18.20;42.29;100570.50;5039799;28;20095;-35
2023/12/04 10:00:54;;;;;;;2.70;2.30;;;;;;;18.22;42.41;100565.53;5025123;28;20017;-37
2023/12/04 10:03:20;;;;;;;2.40;2.20;;;;;;;18.23;42.35;100562.50;5041348;28;20028;-37
2023/12/04 10:05:46;;;;;;;2.50;2.30;;;;;;;18.24;42.25;100555.91;5023452;28;20336;-35
2023/12/04 10:08:11;;;;;;;3.17;2.47;;;;;;;18.28;42.21;100558.91;5036642;28;20516;-36
2023/12/04 10:10:36;;;;;;;3.13;2.50;;;;;;;18.31;42.22;100550.09;5037451;28;20975;-36
2023/12/04 10:13:03;;;;;;;2.58;2.38;;;;;;;18.36;42.04;100554.75;5039467;28;20032;-37
2023/12/04 10:15:28;;;;;;;2.72;2.38;;;;;;;18.42;42.04;100543.44;5041387;28;20409;-36
2023/12/04 10:17:54;;;;;;;2.92;2.30;;;;;;;18.49;42.18;100536.78;5037587;28;20037;-37
2023/12/04 10:20:21;;;;;;;4.32;2.78;;;;;;;18.56;42.02;100529.84;5035865;28;20091;-38
2023/12/04 10:22:57;;;;;;;2.95;2.40;;;;;;;18.64;42.13;100531.19;5043174;28;20539;-35
2023/12/04 10:25:25;;;;;;;2.70;2.50;;;;;;;18.73;41.98;100528.63;5024307;28;20741;-36
2023/12/04 10:27:51;;;;;;;4.47;2.25;;;;;;;18.80;41.97;100523.63;5043072;28;20031;-37
2023/12/04 10:30:27;;;;;;;2.80;2.40;;;;;;;18.87;41.84;100517.75;5044428;28;20600;-36
2023/12/04 10:33:02;;;;;;;2.67;2.33;;;;;;;18.94;41.94;100517.47;5025243;28;20595;-37
2023/12/04 10:35:31;;;;;;;;;;;;;;;18.99;41.76;100509.97;5026674;28;20044;-36
2023/12/04 10:37:57;;;;;;;3.25;2.35;;;;;;;19.01;41.90;100502.28;5019709;28;19978;-36
2023/12/04 10:40:24;;;;;;;2.63;2.05;;;;;;;19.04;41.54;100501.69;5041891;28;20021;-38
2023/12/04 10:42:50;;;;;;;2.50;2.22;;;;;;;19.05;41.62;100484.09;5044778;28;20036;-36
2023/12/04 10:45:15;;;;;;;2.78;2.33;;;;;;;19.05;41.71;100497.00;5022818;28;20029;-36
2023/12/04 10:47:40;;;;;;;2.30;2.13;;;;;;;19.04;41.61;100487.97;5038203;28;20035;-36
2023/12/04 10:50:09;;;;;;;5.80;2.50;;;;;;;19.05;41.73;100483.28;5042620;28;20455;-37
2023/12/04 10:52:36;;;;;;;3.05;2.40;;;;;;;19.02;41.53;100476.44;5023683;28;20332;-36
2023/12/04 10:55:01;;;;;;;2.65;2.20;;;;;;;18.99;41.60;100490.75;5043082;28;20027;-37
2023/12/04 10:57:31;;;;;;;3.50;2.60;;;;;;;18.96;41.48;100485.03;5043692;28;20029;-36
2023/12/04 10:59:58;;;;;;;2.70;2.40;;;;;;;18.92;41.72;100462.84;5025038;28;20036;-36
2023/12/04 11:02:26;;;;;;;3.70;2.22;;;;;;;18.90;42.04;100467.78;5024500;28;20248;-36
2023/12/04 11:04:55;;;;;;;2.67;2.30;;;;;;;18.88;41.91;100467.22;5023215;28;20122;-36
2023/12/04 11:07:21;;;;;;;3.22;2.15;;;;;;;18.84;41.77;100461.50;5041035;28;20382;-36
2023/12/04 11:09:47;;;;;;;2.60;2.40;;;;;;;18.81;42.03;100456.63;5042688;28;20051;-36
2023/12/04 11:12:14;;;;;;;3.40;2.42;;;;;;;18.80;42.04;100459.63;5041782;28;20162;-35
2023/12/04 11:14:44;;;;;;;2.65;2.45;;;;;;;18.75;41.88;100453.09;5015372;28;20036;-35
2023/12/04 11:17:13;;;;;;;4.60;2.50;;;;;;;18.73;41.99;100449.00;5024415;28;20090;-35